Buoy 32622

sailwx.info

Track history (hours):
 
Tides and Currents Weather Stations Pressure Air Temp Water Temp Dewpoint Dewpoint Depression Visibility Wind Speed Wind Dir Waves Ship Positions

Aadnyj

Last reported at 2014-Oct-31 18:49 UTC. Time now 2014-Nov-01 04:54 UTC.
Position S 17°27' W 160°60'.

Length 56 m.

Type: Towing. MMSI: 413600286.

Water temperature 26.9 ° C

Date/timePositionNaut miles runAvg speedWind from/ knotsBaromVisibWave heightAir tempDewpointWater temp
2014-Oct-31 18:49S 17°27' W 160°60'0 0.0 26.9
2014-Oct-31 17:16S 17°27' W 160°60'0 0.0 26.9
2014-Oct-31 17:15S 17°27' W 160°60'0 0.4 26.9
2014-Oct-31 16:11S 17°27' W 161°00'0 0.0 26.9
2014-Oct-31 16:05S 17°27' W 161°00'0 3.4 26.9
2014-Oct-31 16:00S 17°27' W 160°60'0 0.0 26.9
2014-Oct-31 15:35S 17°27' W 160°60'0 0.2 26.9
2014-Oct-31 14:30S 17°27' W 160°60'0 0.0 26.9
2014-Oct-31 14:10S 17°27' W 160°60'1 0.6 26.9
2014-Oct-31 12:29S 17°27' W 161°01'1 0.6 26.9
2014-Oct-31 10:49S 17°27' W 160°60'1 0.6 26.9
2014-Oct-31 08:43S 17°26' W 160°59'0 0.0 26.9
2014-Oct-31 08:40S 17°26' W 160°59'0 0.1 26.9
2014-Oct-31 07:52S 17°26' W 160°59'0 1.7 26.9
2014-Oct-31 07:50S 17°26' W 160°59'1 0.8 26.9
2014-Oct-31 07:01S 17°26' W 160°59'0 0.0 26.9
2014-Oct-31 04:58S 17°26' W 160°59'0 1.6 26.9
2014-Oct-31 04:51S 17°26' W 160°59'0 0.1 26.9
2014-Oct-31 03:19S 17°26' W 160°59'0 0.0 26.9
2014-Oct-31 03:16S 17°26' W 160°59'0 0.0 26.9
2014-Oct-31 03:10S 17°26' W 160°59'1 3.6 26.9
2014-Oct-31 02:50S 17°26' W 160°58'0 0.0 27.0
2014-Oct-31 01:32S 17°26' W 160°58'0 0.0 27.0
2014-Oct-31 01:15S 17°26' W 160°58'1 0.4 26.9
2014-Oct-30 23:36S 17°25' W 160°57'1 0.5 27.0
2014-Oct-30 20:50S 17°26' W 160°56'0 0.0 26.9
2014-Oct-30 20:11S 17°26' W 160°56'1 1.2 26.9
2014-Oct-30 19:16S 17°25' W 160°57'1 0.6 26.9
2014-Oct-30 17:49S 17°26' W 160°56'0 0.0 26.9
2014-Oct-30 17:43S 17°26' W 160°56'0 0.2 26.9
2014-Oct-30 16:08S 17°26' W 160°56'1 0.9 26.9
2014-Oct-30 14:47S 17°27' W 160°55'0 0.0 26.9
2014-Oct-30 12:40S 17°27' W 160°55'1 0.5 27.0
2014-Oct-30 11:00S 17°26' W 160°56'1 0.4 27.0
2014-Oct-30 09:00S 17°26' W 160°57'0 0.1 27.0
2014-Oct-30 08:12S 17°26' W 160°57'0 0.0
2014-Oct-30 08:11S 17°26' W 160°57'0 0.1 27.0
2014-Oct-30 07:16S 17°26' W 160°57'0 0.1 27.0
2014-Oct-30 05:23S 17°26' W 160°57'0 1.9 27.0
2014-Oct-30 05:19S 17°26' W 160°57'0 3.6 27.0
2014-Oct-30 05:15S 17°26' W 160°57'0 0.1 27.0
2014-Oct-30 03:42S 17°26' W 160°57'0 1.8 27.0
2014-Oct-30 03:27S 17°26' W 160°57'0 0.0 27.0
2014-Oct-30 01:45S 17°26' W 160°57'0 0.2 27.1
2014-Oct-30 01:24S 17°26' W 160°57'1 0.4 27.1
2014-Oct-29 23:47S 17°25' W 160°57'1 0.4 27.1
2014-Oct-29 20:30S 17°24' W 160°56'1 1.1 27.0
2014-Oct-29 19:37S 17°23' W 160°56'0 0.0 27.0
2014-Oct-29 18:52S 17°23' W 160°56'1 0.5 27.0
2014-Oct-29 16:55S 17°24' W 160°55'1 2.2 27.0
2014-Oct-29 16:39S 17°23' W 160°55'1 0.6 27.0
2014-Oct-29 15:09S 17°23' W 160°54'1 1.7 27.0
2014-Oct-29 14:47S 17°23' W 160°54'0 0.0 27.0
2014-Oct-29 14:43S 17°23' W 160°54'1 0.3 27.0
2014-Oct-29 13:10S 17°23' W 160°54'0 0.1 27.1
2014-Oct-29 11:10S 17°23' W 160°53'0 0.2 27.1
2014-Oct-29 10:08S 17°23' W 160°54'1 0.6 27.1
2014-Oct-29 08:29S 17°23' W 160°53'0 0.0 27.1
2014-Oct-29 07:43S 17°23' W 160°53'1 1.3 27.1
2014-Oct-29 06:47S 17°24' W 160°53'0 0.0 27.1
2014-Oct-29 05:54S 17°24' W 160°53'0 0.3 27.1
2014-Oct-29 04:13S 17°24' W 160°52'0 0.6 27.2
2014-Oct-29 04:07S 17°24' W 160°52'1 1.0 27.2
2014-Oct-29 03:38S 17°25' W 160°52'0 0.4 27.2
2014-Oct-29 02:22S 17°25' W 160°51'0 0.0 27.2
2014-Oct-29 01:59S 17°25' W 160°51'1 1.6 27.2
2014-Oct-29 01:40S 17°25' W 160°52'0 4.9 27.2
2014-Oct-29 01:35S 17°25' W 160°51'0 0.1 27.2
2014-Oct-28 23:58S 17°26' W 160°52'1 0.2 27.2
2014-Oct-28 20:55S 17°26' W 160°51'0 1.6 27.2
2014-Oct-28 20:47S 17°26' W 160°52'0 0.0 27.2
2014-Oct-28 19:59S 17°26' W 160°52'2 1.3 27.2
2014-Oct-28 18:45S 17°28' W 160°52'0 0.0 27.1
2014-Oct-28 18:20S 17°28' W 160°52'1 0.6 27.1
2014-Oct-28 17:09S 17°27' W 160°52'0 0.8 27.1
2014-Oct-28 16:42S 17°28' W 160°52'0 0.0 27.1
2014-Oct-28 15:36S 17°28' W 160°52'0 0.0 27.1
2014-Oct-28 15:29S 17°28' W 160°52'0 0.3 27.1
2014-Oct-28 15:05S 17°28' W 160°52'0 0.0 27.1
2014-Oct-28 14:55S 17°28' W 160°52'0 0.0 27.1
2014-Oct-28 13:55S 17°28' W 160°52'0 0.0 27.1
2014-Oct-28 13:22S 17°28' W 160°52'0 0.9 27.1
2014-Oct-28 13:05S 17°28' W 160°52'0 0.0 27.1
2014-Oct-28 13:02S 17°28' W 160°52'0 1.2 27.1
2014-Oct-28 12:53S 17°28' W 160°52'0 0.0 27.1
2014-Oct-28 11:23S 17°28' W 160°52'0 0.0 27.1
2014-Oct-28 08:54S 17°28' W 160°52'0 0.0 27.2
2014-Oct-28 08:49S 17°28' W 160°52'0 0.5 27.2
2014-Oct-28 08:06S 17°27' W 160°52'234.9 27.2
2014-Oct-28 08:03S 17°28' W 160°50'2 2.1 27.2
2014-Oct-28 07:12S 17°27' W 160°52'2 0.7 27.2
2014-Oct-28 04:48S 17°28' W 160°50'0 2.7 27.2
2014-Oct-28 04:45S 17°28' W 160°50'1 1.0 27.2
2014-Oct-28 03:46S 17°28' W 160°51'1 0.9 27.3
2014-Oct-28 03:05S 17°27' W 160°50'1 2.8 27.3
2014-Oct-28 02:50S 17°28' W 160°50'0 0.3 27.3
2014-Oct-28 02:08S 17°27' W 160°50'0 0.6 27.3
2014-Oct-28 01:51S 17°27' W 160°50'1 8.4 27.3
2014-Oct-28 01:45S 17°28' W 160°49'0 0.0 27.3
2014-Oct-28 00:09S 17°28' W 160°49'3 1.2 27.4
2014-Oct-27 21:58S 17°29' W 160°47'0 0.0 27.3
2014-Oct-27 21:13S 17°29' W 160°47'0 0.0 27.2
2014-Oct-27 20:16S 17°29' W 160°47'1 1.5 27.2
2014-Oct-27 19:30S 17°30' W 160°46'0 0.0 27.2
2014-Oct-27 18:40S 17°30' W 160°46'1 1.2 27.1
2014-Oct-27 17:43S 17°31' W 160°45'0 0.0 27.1
2014-Oct-27 17:38S 17°31' W 160°45'1 0.5 27.1
2014-Oct-27 16:02S 17°31' W 160°45'1 0.7 27.1
2014-Oct-27 15:15S 17°32' W 160°45'0 0.9 27.2
2014-Oct-27 15:06S 17°32' W 160°44'0 0.0 27.2
2014-Oct-27 14:21S 17°32' W 160°44'1 0.8 27.2
2014-Oct-27 13:30S 17°32' W 160°45'0 1.6 27.2
2014-Oct-27 13:16S 17°33' W 160°44'0 0.0 27.3
2014-Oct-27 13:11S 17°33' W 160°44'1 0.5 27.3
2014-Oct-27 11:29S 17°34' W 160°44'2 1.0 27.4
2014-Oct-27 09:08S 17°36' W 160°43'0 0.2 27.6
2014-Oct-27 08:23S 17°36' W 160°43'0 0.1 27.7
2014-Oct-27 07:30S 17°36' W 160°43'2 0.7 27.9
2014-Oct-27 05:16S 17°37' W 160°43'0 2.5 28.4
2014-Oct-27 05:14S 17°37' W 160°43'0 0.1 28.6
2014-Oct-27 04:01S 17°37' W 160°43'0 5.0
2014-Oct-27 04:00S 17°37' W 160°43'0 1.0 29.5
2014-Oct-27 03:35S 17°38' W 160°44'0 1.1 29.7
2014-Oct-27 03:16S 17°38' W 160°43'0 7.2 30.0
2014-Oct-27 03:15S 17°38' W 160°43'1 0.8 30.0
2014-Oct-27 02:22S 17°39' W 160°43'0 0.0 31.3
2014-Oct-27 02:00S 17°39' W 160°43'0 0.0 31.2
2014-Oct-27 01:57S 17°39' W 160°43'1 0.4 31.2
2014-Oct-27 00:16S 17°39' W 160°44'1 0.3 30.6
2014-Oct-26 20:39S 17°40' W 160°43'1 1.3 27.8
2014-Oct-26 19:54S 17°41' W 160°43'0 0.0 27.5
2014-Oct-26 19:00S 17°41' W 160°43'1 0.4 27.3
2014-Oct-26 16:30S 17°42' W 160°43'0 0.5 27.2
2014-Oct-26 15:29S 17°42' W 160°43'0 0.0 27.2
2014-Oct-26 15:26S 17°42' W 160°43'1 3.7 27.2
2014-Oct-26 15:15S 17°43' W 160°44'0 0.0 27.2
2014-Oct-26 14:43S 17°43' W 160°44'0 0.0 27.2
2014-Oct-26 13:46S 17°43' W 160°44'0 0.9 27.2
2014-Oct-26 13:27S 17°43' W 160°44'0 2.4 27.2
2014-Oct-26 13:21S 17°43' W 160°44'0 5.1 27.2
2014-Oct-26 13:16S 17°43' W 160°44'0 0.0 27.2
2014-Oct-26 11:45S 17°43' W 160°44'1 0.4 27.3
2014-Oct-26 08:43S 17°44' W 160°44'0 0.0 27.4
2014-Oct-26 07:54S 17°44' W 160°44'1 0.9 27.4
2014-Oct-26 07:04S 17°45' W 160°44'0 0.0 27.5
2014-Oct-26 05:45S 17°45' W 160°44'1 0.4 27.7
2014-Oct-26 04:15S 17°45' W 160°43'0 0.0 27.9
2014-Oct-26 04:09S 17°45' W 160°43'0 0.7 27.9
2014-Oct-26 03:40S 17°46' W 160°43'0 0.3 27.9
2014-Oct-26 02:31S 17°46' W 160°44'0 0.9 28.1
2014-Oct-26 02:11S 17°46' W 160°44'0 5.8 28.1
2014-Oct-26 02:08S 17°46' W 160°44'1 0.5 28.1
2014-Oct-26 00:30S 17°47' W 160°43'2 0.5 27.9
2014-Oct-25 20:15S 17°49' W 160°43'0 0.2 27.0
2014-Oct-25 19:25S 17°49' W 160°43'0 2.7 26.9
2014-Oct-25 19:22S 17°49' W 160°43'2 1.7 26.9
2014-Oct-25 18:29S 17°50' W 160°42'0 0.0 26.9
2014-Oct-25 17:06S 17°50' W 160°42'0 0.0 26.9
2014-Oct-25 17:04S 17°50' W 160°42'1 4.1 26.9
2014-Oct-25 16:53S 17°50' W 160°43'1 0.4 26.9
2014-Oct-25 15:36S 17°51' W 160°43'0 0.5 26.9
2014-Oct-25 15:23S 17°51' W 160°43'0 1.6 26.9
2014-Oct-25 15:09S 17°51' W 160°43'1 0.5 26.9
2014-Oct-25 13:58S 17°52' W 160°43'1 0.4 26.9
2014-Oct-25 11:56S 17°52' W 160°44'1 0.3 26.9
2014-Oct-25 09:07S 17°53' W 160°44'0 0.0 26.9
2014-Oct-25 09:04S 17°53' W 160°44'0 0.0 26.9
2014-Oct-25 08:12S 17°53' W 160°44'2 0.5 26.9
2014-Oct-25 04:42S 17°55' W 160°42'0 0.0 27.2
2014-Oct-25 04:38S 17°55' W 160°42'1 1.4 27.2
2014-Oct-25 04:15S 17°55' W 160°42'1 3.6 27.2
2014-Oct-25 04:06S 17°55' W 160°42'1 6.6 27.2
2014-Oct-25 04:01S 17°55' W 160°42'0 0.0 27.2
2014-Oct-25 02:59S 17°55' W 160°42'0 0.7 27.3
2014-Oct-25 02:44S 17°55' W 160°42'1 1.6 27.3
2014-Oct-25 02:21S 17°56' W 160°42'1 8.7 27.3
2014-Oct-25 02:16S 17°55' W 160°42'1 0.5 27.3
2014-Oct-25 00:44S 17°56' W 160°42'0 0.0 27.3
2014-Oct-25 00:41S 17°56' W 160°42'1 0.4 27.3
2014-Oct-24 22:56S 17°57' W 160°42'2 0.6 27.2
2014-Oct-24 20:30S 17°58' W 160°41'0 0.0 26.9
2014-Oct-24 19:42S 17°58' W 160°41'1 1.7 26.9
2014-Oct-24 18:56S 17°59' W 160°40'0 0.3 26.9
2014-Oct-24 17:30S 17°59' W 160°40'1 0.5 26.9
2014-Oct-24 15:56S 17°60' W 160°40'0 0.3 26.9
2014-Oct-24 15:40S 17°60' W 160°40'0 0.0 26.9
2014-Oct-24 15:34S 17°60' W 160°40'1 0.7 26.9
2014-Oct-24 14:09S 18°01' W 160°39'0 0.2 26.9
2014-Oct-24 13:53S 18°01' W 160°40'0 3.6 26.9
2014-Oct-24 13:47S 18°01' W 160°40'1 0.8 26.9
2014-Oct-24 12:10S 18°02' W 160°40'0 0.9 26.9
2014-Oct-24 12:06S 18°02' W 160°40'212.1 26.9
2014-Oct-24 11:57S 18°04' W 160°40'0 0.2 26.9
2014-Oct-24 09:27S 18°03' W 160°40'0 0.0 26.9
2014-Oct-24 08:34S 18°03' W 160°40'0 0.0 26.9
2014-Oct-24 08:29S 18°03' W 160°40'0 0.0 26.9
2014-Oct-24 07:48S 18°03' W 160°40'0 0.1 26.9
2014-Oct-24 05:13S 18°04' W 160°41'0 0.0 27.0
2014-Oct-24 05:08S 18°04' W 160°41'0 0.5 27.0
2014-Oct-24 04:29S 18°04' W 160°40'1 0.7 27.0
2014-Oct-24 03:30S 18°04' W 160°40'1 1.1 27.1
2014-Oct-24 02:56S 18°04' W 160°40'0 0.7 27.1
2014-Oct-24 02:30S 18°04' W 160°40'1 0.4 27.1
2014-Oct-24 00:55S 18°05' W 160°40'0 1.7 27.1
2014-Oct-24 00:52S 18°05' W 160°40'1 5.0 27.1
2014-Oct-24 00:44S 18°06' W 160°40'0 0.0 27.1
2014-Oct-23 23:10S 18°06' W 160°40'2 0.8 27.1
2014-Oct-23 20:57S 18°07' W 160°38'0 0.0 26.9
2014-Oct-23 20:52S 18°07' W 160°38'0 0.0 26.9
2014-Oct-23 20:07S 18°07' W 160°38'0 0.0 26.9
2014-Oct-23 20:02S 18°07' W 160°38'0 0.2 26.9
2014-Oct-23 19:16S 18°07' W 160°38'0 0.0 26.9
2014-Oct-23 18:23S 18°07' W 160°38'0 0.2 26.9
2014-Oct-23 16:27S 18°07' W 160°38'1 2.9 26.9
2014-Oct-23 16:02S 18°08' W 160°37'0 0.0 26.9
2014-Oct-23 15:56S 18°08' W 160°37'0 0.1 26.9
2014-Oct-23 14:15S 18°07' W 160°37'223.2 26.9
2014-Oct-23 14:11S 18°09' W 160°36'0 0.0 26.9
2014-Oct-23 13:58S 18°09' W 160°36'0 0.0 26.9
2014-Oct-23 12:16S 18°09' W 160°36'1 7.4 26.9
2014-Oct-23 12:08S 18°10' W 160°37'0 0.0 26.9
2014-Oct-23 10:35S 18°10' W 160°37'0 0.0 26.9
2014-Oct-23 08:57S 18°10' W 160°37'0 0.0 26.9
2014-Oct-23 08:53S 18°10' W 160°37'0 0.6 26.9
2014-Oct-23 08:06S 18°10' W 160°37'0 0.0 26.9
2014-Oct-23 07:15S 18°10' W 160°37'0 0.3 26.9
2014-Oct-23 05:44S 18°11' W 160°37'1 0.7 26.9
2014-Oct-23 04:43S 18°11' W 160°36'0 0.1 27.0
2014-Oct-23 04:03S 18°11' W 160°36'0 0.4 27.0
2014-Oct-23 03:07S 18°11' W 160°36'1 3.5 27.0
2014-Oct-23 02:42S 18°12' W 160°35'0 0.0 27.0
2014-Oct-23 01:03S 18°12' W 160°35'1 0.5 27.0
2014-Oct-22 23:22S 18°13' W 160°35'2 0.9 27.0
2014-Oct-22 21:12S 18°15' W 160°36'0 0.0 26.9
2014-Oct-22 20:23S 18°15' W 160°36'0 0.4 26.9
2014-Oct-22 19:39S 18°15' W 160°36'0 0.0 26.9
2014-Oct-22 19:30S 18°15' W 160°36'1 0.4 26.9
2014-Oct-22 17:00S 18°16' W 160°36'0 0.0 26.9
2014-Oct-22 16:56S 18°16' W 160°36'1 1.1 26.9
2014-Oct-22 16:13S 18°16' W 160°37'1 0.9 26.9
2014-Oct-22 15:17S 18°16' W 160°36'1 1.1 26.9
2014-Oct-22 14:46S 18°16' W 160°36'0 0.6 26.9
2014-Oct-22 14:28S 18°16' W 160°36'1 0.5 26.9
2014-Oct-22 12:30S 18°17' W 160°37'0 2.5 26.9
2014-Oct-22 12:28S 18°17' W 160°37'2 1.2 26.9
2014-Oct-22 10:46S 18°19' W 160°37'0 0.0 26.9
2014-Oct-22 10:01S 18°19' W 160°37'1 1.1
2014-Oct-22 09:11S 18°20' W 160°37'0 0.0 26.9
2014-Oct-22 08:26S 18°20' W 160°37'0 0.1 26.9
2014-Oct-22 07:35S 18°20' W 160°37'1 0.9 26.9
2014-Oct-22 06:41S 18°20' W 160°36'0 0.0 26.9
2014-Oct-22 04:56S 18°20' W 160°36'1 1.9 27.0
2014-Oct-22 04:29S 18°20' W 160°37'1 1.6 27.1
2014-Oct-22 03:37S 18°21' W 160°36'0 0.9 27.1
2014-Oct-22 03:15S 18°21' W 160°36'221.7 27.1
2014-Oct-22 03:09S 18°22' W 160°34'0 0.0 27.1
2014-Oct-22 02:52S 18°22' W 160°34'0 0.0 27.2
2014-Oct-22 01:34S 18°22' W 160°34'0 0.0 27.2
2014-Oct-22 01:16S 18°22' W 160°34'0 1.7 27.2
2014-Oct-22 01:14S 18°22' W 160°34'1 0.8 27.2
2014-Oct-21 23:30S 18°23' W 160°33'2 0.8 27.1
2014-Oct-21 20:43S 18°25' W 160°32'1 1.0 26.9
2014-Oct-21 19:58S 18°26' W 160°33'1 1.2 26.8
2014-Oct-21 19:07S 18°26' W 160°32'0 4.3 26.7
2014-Oct-21 19:04S 18°26' W 160°32'   26.7
Track history (hours):
 
Tides and Currents Weather Stations Pressure Air Temp Water Temp Dewpoint Dewpoint Depression Visibility Wind Speed Wind Dir Waves Ship Positions

Aadnyj

Last reported at 2014-Oct-31 18:49 UTC. Time now 2014-Nov-01 04:54 UTC.
Position S 17°27' W 160°60'.

Length 56 m.

Type: Towing. MMSI: 413600286.

Water temperature 26.9 ° C

Date/timePositionNaut miles runAvg speedWind from/ knotsBaromVisibWave heightAir tempDewpointWater temp
2014-Oct-31 18:49S 17°27' W 160°60'0 0.0 26.9
2014-Oct-31 17:16S 17°27' W 160°60'0 0.0 26.9
2014-Oct-31 17:15S 17°27' W 160°60'0 0.4 26.9
2014-Oct-31 16:11S 17°27' W 161°00'0 0.0 26.9
2014-Oct-31 16:05S 17°27' W 161°00'0 3.4 26.9
2014-Oct-31 16:00S 17°27' W 160°60'0 0.0 26.9
2014-Oct-31 15:35S 17°27' W 160°60'0 0.2 26.9
2014-Oct-31 14:30S 17°27' W 160°60'0 0.0 26.9
2014-Oct-31 14:10S 17°27' W 160°60'1 0.6 26.9
2014-Oct-31 12:29S 17°27' W 161°01'1 0.6 26.9
2014-Oct-31 10:49S 17°27' W 160°60'1 0.6 26.9
2014-Oct-31 08:43S 17°26' W 160°59'0 0.0 26.9
2014-Oct-31 08:40S 17°26' W 160°59'0 0.1 26.9
2014-Oct-31 07:52S 17°26' W 160°59'0 1.7 26.9
2014-Oct-31 07:50S 17°26' W 160°59'1 0.8 26.9
2014-Oct-31 07:01S 17°26' W 160°59'0 0.0 26.9
2014-Oct-31 04:58S 17°26' W 160°59'0 1.6 26.9
2014-Oct-31 04:51S 17°26' W 160°59'0 0.1 26.9
2014-Oct-31 03:19S 17°26' W 160°59'0 0.0 26.9
2014-Oct-31 03:16S 17°26' W 160°59'0 0.0 26.9
2014-Oct-31 03:10S 17°26' W 160°59'1 3.6 26.9
2014-Oct-31 02:50S 17°26' W 160°58'0 0.0 27.0
2014-Oct-31 01:32S 17°26' W 160°58'0 0.0 27.0
2014-Oct-31 01:15S 17°26' W 160°58'1 0.4 26.9
2014-Oct-30 23:36S 17°25' W 160°57'1 0.5 27.0
2014-Oct-30 20:50S 17°26' W 160°56'0 0.0 26.9
2014-Oct-30 20:11S 17°26' W 160°56'1 1.2 26.9
2014-Oct-30 19:16S 17°25' W 160°57'1 0.6 26.9
2014-Oct-30 17:49S 17°26' W 160°56'0 0.0 26.9
2014-Oct-30 17:43S 17°26' W 160°56'0 0.2 26.9
2014-Oct-30 16:08S 17°26' W 160°56'1 0.9 26.9
2014-Oct-30 14:47S 17°27' W 160°55'0 0.0 26.9
2014-Oct-30 12:40S 17°27' W 160°55'1 0.5 27.0
2014-Oct-30 11:00S 17°26' W 160°56'1 0.4 27.0
2014-Oct-30 09:00S 17°26' W 160°57'0 0.1 27.0
2014-Oct-30 08:12S 17°26' W 160°57'0 0.0
2014-Oct-30 08:11S 17°26' W 160°57'0 0.1 27.0
2014-Oct-30 07:16S 17°26' W 160°57'0 0.1 27.0
2014-Oct-30 05:23S 17°26' W 160°57'0 1.9 27.0
2014-Oct-30 05:19S 17°26' W 160°57'0 3.6 27.0
2014-Oct-30 05:15S 17°26' W 160°57'0 0.1 27.0
2014-Oct-30 03:42S 17°26' W 160°57'0 1.8 27.0
2014-Oct-30 03:27S 17°26' W 160°57'0 0.0 27.0
2014-Oct-30 01:45S 17°26' W 160°57'0 0.2 27.1
2014-Oct-30 01:24S 17°26' W 160°57'1 0.4 27.1
2014-Oct-29 23:47S 17°25' W 160°57'1 0.4 27.1
2014-Oct-29 20:30S 17°24' W 160°56'1 1.1 27.0
2014-Oct-29 19:37S 17°23' W 160°56'0 0.0 27.0
2014-Oct-29 18:52S 17°23' W 160°56'1 0.5 27.0
2014-Oct-29 16:55S 17°24' W 160°55'1 2.2 27.0
2014-Oct-29 16:39S 17°23' W 160°55'1 0.6 27.0
2014-Oct-29 15:09S 17°23' W 160°54'1 1.7 27.0
2014-Oct-29 14:47S 17°23' W 160°54'0 0.0 27.0
2014-Oct-29 14:43S 17°23' W 160°54'1 0.3 27.0
2014-Oct-29 13:10S 17°23' W 160°54'0 0.1 27.1
2014-Oct-29 11:10S 17°23' W 160°53'0 0.2 27.1
2014-Oct-29 10:08S 17°23' W 160°54'1 0.6 27.1
2014-Oct-29 08:29S 17°23' W 160°53'0 0.0 27.1
2014-Oct-29 07:43S 17°23' W 160°53'1 1.3 27.1
2014-Oct-29 06:47S 17°24' W 160°53'0 0.0 27.1
2014-Oct-29 05:54S 17°24' W 160°53'0 0.3 27.1
2014-Oct-29 04:13S 17°24' W 160°52'0 0.6 27.2
2014-Oct-29 04:07S 17°24' W 160°52'1 1.0 27.2
2014-Oct-29 03:38S 17°25' W 160°52'0 0.4 27.2
2014-Oct-29 02:22S 17°25' W 160°51'0 0.0 27.2
2014-Oct-29 01:59S 17°25' W 160°51'1 1.6 27.2
2014-Oct-29 01:40S 17°25' W 160°52'0 4.9 27.2
2014-Oct-29 01:35S 17°25' W 160°51'0 0.1 27.2
2014-Oct-28 23:58S 17°26' W 160°52'1 0.2 27.2
2014-Oct-28 20:55S 17°26' W 160°51'0 1.6 27.2
2014-Oct-28 20:47S 17°26' W 160°52'0 0.0 27.2
2014-Oct-28 19:59S 17°26' W 160°52'2 1.3 27.2
2014-Oct-28 18:45S 17°28' W 160°52'0 0.0 27.1
2014-Oct-28 18:20S 17°28' W 160°52'1 0.6 27.1
2014-Oct-28 17:09S 17°27' W 160°52'0 0.8 27.1
2014-Oct-28 16:42S 17°28' W 160°52'0 0.0 27.1
2014-Oct-28 15:36S 17°28' W 160°52'0 0.0 27.1
2014-Oct-28 15:29S 17°28' W 160°52'0 0.3 27.1
2014-Oct-28 15:05S 17°28' W 160°52'0 0.0 27.1
2014-Oct-28 14:55S 17°28' W 160°52'0 0.0 27.1
2014-Oct-28 13:55S 17°28' W 160°52'0 0.0 27.1
2014-Oct-28 13:22S 17°28' W 160°52'0 0.9 27.1
2014-Oct-28 13:05S 17°28' W 160°52'0 0.0 27.1
2014-Oct-28 13:02S 17°28' W 160°52'0 1.2 27.1
2014-Oct-28 12:53S 17°28' W 160°52'0 0.0 27.1
2014-Oct-28 11:23S 17°28' W 160°52'0 0.0 27.1
2014-Oct-28 08:54S 17°28' W 160°52'0 0.0 27.2
2014-Oct-28 08:49S 17°28' W 160°52'0 0.5 27.2
2014-Oct-28 08:06S 17°27' W 160°52'234.9 27.2
2014-Oct-28 08:03S 17°28' W 160°50'2 2.1 27.2
2014-Oct-28 07:12S 17°27' W 160°52'2 0.7 27.2
2014-Oct-28 04:48S 17°28' W 160°50'0 2.7 27.2
2014-Oct-28 04:45S 17°28' W 160°50'1 1.0 27.2
2014-Oct-28 03:46S 17°28' W 160°51'1 0.9 27.3
2014-Oct-28 03:05S 17°27' W 160°50'1 2.8 27.3
2014-Oct-28 02:50S 17°28' W 160°50'0 0.3 27.3
2014-Oct-28 02:08S 17°27' W 160°50'0 0.6 27.3
2014-Oct-28 01:51S 17°27' W 160°50'1 8.4 27.3
2014-Oct-28 01:45S 17°28' W 160°49'0 0.0 27.3
2014-Oct-28 00:09S 17°28' W 160°49'3 1.2 27.4
2014-Oct-27 21:58S 17°29' W 160°47'0 0.0 27.3
2014-Oct-27 21:13S 17°29' W 160°47'0 0.0 27.2
2014-Oct-27 20:16S 17°29' W 160°47'1 1.5 27.2
2014-Oct-27 19:30S 17°30' W 160°46'0 0.0 27.2
2014-Oct-27 18:40S 17°30' W 160°46'1 1.2 27.1
2014-Oct-27 17:43S 17°31' W 160°45'0 0.0 27.1
2014-Oct-27 17:38S 17°31' W 160°45'1 0.5 27.1
2014-Oct-27 16:02S 17°31' W 160°45'1 0.7 27.1
2014-Oct-27 15:15S 17°32' W 160°45'0 0.9 27.2
2014-Oct-27 15:06S 17°32' W 160°44'0 0.0 27.2
2014-Oct-27 14:21S 17°32' W 160°44'1 0.8 27.2
2014-Oct-27 13:30S 17°32' W 160°45'0 1.6 27.2
2014-Oct-27 13:16S 17°33' W 160°44'0 0.0 27.3
2014-Oct-27 13:11S 17°33' W 160°44'1 0.5 27.3
2014-Oct-27 11:29S 17°34' W 160°44'2 1.0 27.4
2014-Oct-27 09:08S 17°36' W 160°43'0 0.2 27.6
2014-Oct-27 08:23S 17°36' W 160°43'0 0.1 27.7
2014-Oct-27 07:30S 17°36' W 160°43'2 0.7 27.9
2014-Oct-27 05:16S 17°37' W 160°43'0 2.5 28.4
2014-Oct-27 05:14S 17°37' W 160°43'0 0.1 28.6
2014-Oct-27 04:01S 17°37' W 160°43'0 5.0
2014-Oct-27 04:00S 17°37' W 160°43'0 1.0 29.5
2014-Oct-27 03:35S 17°38' W 160°44'0 1.1 29.7
2014-Oct-27 03:16S 17°38' W 160°43'0 7.2 30.0
2014-Oct-27 03:15S 17°38' W 160°43'1 0.8 30.0
2014-Oct-27 02:22S 17°39' W 160°43'0 0.0 31.3
2014-Oct-27 02:00S 17°39' W 160°43'0 0.0 31.2
2014-Oct-27 01:57S 17°39' W 160°43'1 0.4 31.2
2014-Oct-27 00:16S 17°39' W 160°44'1 0.3 30.6
2014-Oct-26 20:39S 17°40' W 160°43'1 1.3 27.8
2014-Oct-26 19:54S 17°41' W 160°43'0 0.0 27.5
2014-Oct-26 19:00S 17°41' W 160°43'1 0.4 27.3
2014-Oct-26 16:30S 17°42' W 160°43'0 0.5 27.2
2014-Oct-26 15:29S 17°42' W 160°43'0 0.0 27.2
2014-Oct-26 15:26S 17°42' W 160°43'1 3.7 27.2
2014-Oct-26 15:15S 17°43' W 160°44'0 0.0 27.2
2014-Oct-26 14:43S 17°43' W 160°44'0 0.0 27.2
2014-Oct-26 13:46S 17°43' W 160°44'0 0.9 27.2
2014-Oct-26 13:27S 17°43' W 160°44'0 2.4 27.2
2014-Oct-26 13:21S 17°43' W 160°44'0 5.1 27.2
2014-Oct-26 13:16S 17°43' W 160°44'0 0.0 27.2
2014-Oct-26 11:45S 17°43' W 160°44'1 0.4 27.3
2014-Oct-26 08:43S 17°44' W 160°44'0 0.0 27.4
2014-Oct-26 07:54S 17°44' W 160°44'1 0.9 27.4
2014-Oct-26 07:04S 17°45' W 160°44'0 0.0 27.5
2014-Oct-26 05:45S 17°45' W 160°44'1 0.4 27.7
2014-Oct-26 04:15S 17°45' W 160°43'0 0.0 27.9
2014-Oct-26 04:09S 17°45' W 160°43'0 0.7 27.9
2014-Oct-26 03:40S 17°46' W 160°43'0 0.3 27.9
2014-Oct-26 02:31S 17°46' W 160°44'0 0.9 28.1
2014-Oct-26 02:11S 17°46' W 160°44'0 5.8 28.1
2014-Oct-26 02:08S 17°46' W 160°44'1 0.5 28.1
2014-Oct-26 00:30S 17°47' W 160°43'2 0.5 27.9
2014-Oct-25 20:15S 17°49' W 160°43'0 0.2 27.0
2014-Oct-25 19:25S 17°49' W 160°43'0 2.7 26.9
2014-Oct-25 19:22S 17°49' W 160°43'2 1.7 26.9
2014-Oct-25 18:29S 17°50' W 160°42'0 0.0 26.9
2014-Oct-25 17:06S 17°50' W 160°42'0 0.0 26.9
2014-Oct-25 17:04S 17°50' W 160°42'1 4.1 26.9
2014-Oct-25 16:53S 17°50' W 160°43'1 0.4 26.9
2014-Oct-25 15:36S 17°51' W 160°43'0 0.5 26.9
2014-Oct-25 15:23S 17°51' W 160°43'0 1.6 26.9
2014-Oct-25 15:09S 17°51' W 160°43'1 0.5 26.9
2014-Oct-25 13:58S 17°52' W 160°43'1 0.4 26.9
2014-Oct-25 11:56S 17°52' W 160°44'1 0.3 26.9
2014-Oct-25 09:07S 17°53' W 160°44'0 0.0 26.9
2014-Oct-25 09:04S 17°53' W 160°44'0 0.0 26.9
2014-Oct-25 08:12S 17°53' W 160°44'2 0.5 26.9
2014-Oct-25 04:42S 17°55' W 160°42'0 0.0 27.2
2014-Oct-25 04:38S 17°55' W 160°42'1 1.4 27.2
2014-Oct-25 04:15S 17°55' W 160°42'1 3.6 27.2
2014-Oct-25 04:06S 17°55' W 160°42'1 6.6 27.2
2014-Oct-25 04:01S 17°55' W 160°42'0 0.0 27.2
2014-Oct-25 02:59S 17°55' W 160°42'0 0.7 27.3
2014-Oct-25 02:44S 17°55' W 160°42'1 1.6 27.3
2014-Oct-25 02:21S 17°56' W 160°42'1 8.7 27.3
2014-Oct-25 02:16S 17°55' W 160°42'1 0.5 27.3
2014-Oct-25 00:44S 17°56' W 160°42'0 0.0 27.3
2014-Oct-25 00:41S 17°56' W 160°42'1 0.4 27.3
2014-Oct-24 22:56S 17°57' W 160°42'2 0.6 27.2
2014-Oct-24 20:30S 17°58' W 160°41'0 0.0 26.9
2014-Oct-24 19:42S 17°58' W 160°41'1 1.7 26.9
2014-Oct-24 18:56S 17°59' W 160°40'0 0.3 26.9
2014-Oct-24 17:30S 17°59' W 160°40'1 0.5 26.9
2014-Oct-24 15:56S 17°60' W 160°40'0 0.3 26.9
2014-Oct-24 15:40S 17°60' W 160°40'0 0.0 26.9
2014-Oct-24 15:34S 17°60' W 160°40'1 0.7 26.9
2014-Oct-24 14:09S 18°01' W 160°39'0 0.2 26.9
2014-Oct-24 13:53S 18°01' W 160°40'0 3.6 26.9
2014-Oct-24 13:47S 18°01' W 160°40'1 0.8 26.9
2014-Oct-24 12:10S 18°02' W 160°40'0 0.9 26.9
2014-Oct-24 12:06S 18°02' W 160°40'212.1 26.9
2014-Oct-24 11:57S 18°04' W 160°40'0 0.2 26.9
2014-Oct-24 09:27S 18°03' W 160°40'0 0.0 26.9
2014-Oct-24 08:34S 18°03' W 160°40'0 0.0 26.9
2014-Oct-24 08:29S 18°03' W 160°40'0 0.0 26.9
2014-Oct-24 07:48S 18°03' W 160°40'0 0.1 26.9
2014-Oct-24 05:13S 18°04' W 160°41'0 0.0 27.0
2014-Oct-24 05:08S 18°04' W 160°41'0 0.5 27.0
2014-Oct-24 04:29S 18°04' W 160°40'1 0.7 27.0
2014-Oct-24 03:30S 18°04' W 160°40'1 1.1 27.1
2014-Oct-24 02:56S 18°04' W 160°40'0 0.7 27.1
2014-Oct-24 02:30S 18°04' W 160°40'1 0.4 27.1
2014-Oct-24 00:55S 18°05' W 160°40'0 1.7 27.1
2014-Oct-24 00:52S 18°05' W 160°40'1 5.0 27.1
2014-Oct-24 00:44S 18°06' W 160°40'0 0.0 27.1
2014-Oct-23 23:10S 18°06' W 160°40'2 0.8 27.1
2014-Oct-23 20:57S 18°07' W 160°38'0 0.0 26.9
2014-Oct-23 20:52S 18°07' W 160°38'0 0.0 26.9
2014-Oct-23 20:07S 18°07' W 160°38'0 0.0 26.9
2014-Oct-23 20:02S 18°07' W 160°38'0 0.2 26.9
2014-Oct-23 19:16S 18°07' W 160°38'0 0.0 26.9
2014-Oct-23 18:23S 18°07' W 160°38'0 0.2 26.9
2014-Oct-23 16:27S 18°07' W 160°38'1 2.9 26.9
2014-Oct-23 16:02S 18°08' W 160°37'0 0.0 26.9
2014-Oct-23 15:56S 18°08' W 160°37'0 0.1 26.9
2014-Oct-23 14:15S 18°07' W 160°37'223.2 26.9
2014-Oct-23 14:11S 18°09' W 160°36'0 0.0 26.9
2014-Oct-23 13:58S 18°09' W 160°36'0 0.0 26.9
2014-Oct-23 12:16S 18°09' W 160°36'1 7.4 26.9
2014-Oct-23 12:08S 18°10' W 160°37'0 0.0 26.9
2014-Oct-23 10:35S 18°10' W 160°37'0 0.0 26.9
2014-Oct-23 08:57S 18°10' W 160°37'0 0.0 26.9
2014-Oct-23 08:53S 18°10' W 160°37'0 0.6 26.9
2014-Oct-23 08:06S 18°10' W 160°37'0 0.0 26.9
2014-Oct-23 07:15S 18°10' W 160°37'0 0.3 26.9
2014-Oct-23 05:44S 18°11' W 160°37'1 0.7 26.9
2014-Oct-23 04:43S 18°11' W 160°36'0 0.1 27.0
2014-Oct-23 04:03S 18°11' W 160°36'0 0.4 27.0
2014-Oct-23 03:07S 18°11' W 160°36'1 3.5 27.0
2014-Oct-23 02:42S 18°12' W 160°35'0 0.0 27.0
2014-Oct-23 01:03S 18°12' W 160°35'1 0.5 27.0
2014-Oct-22 23:22S 18°13' W 160°35'2 0.9 27.0
2014-Oct-22 21:12S 18°15' W 160°36'0 0.0 26.9
2014-Oct-22 20:23S 18°15' W 160°36'0 0.4 26.9
2014-Oct-22 19:39S 18°15' W 160°36'0 0.0 26.9
2014-Oct-22 19:30S 18°15' W 160°36'1 0.4 26.9
2014-Oct-22 17:00S 18°16' W 160°36'0 0.0 26.9
2014-Oct-22 16:56S 18°16' W 160°36'1 1.1 26.9
2014-Oct-22 16:13S 18°16' W 160°37'1 0.9 26.9
2014-Oct-22 15:17S 18°16' W 160°36'1 1.1 26.9
2014-Oct-22 14:46S 18°16' W 160°36'0 0.6 26.9
2014-Oct-22 14:28S 18°16' W 160°36'1 0.5 26.9
2014-Oct-22 12:30S 18°17' W 160°37'0 2.5 26.9
2014-Oct-22 12:28S 18°17' W 160°37'2 1.2 26.9
2014-Oct-22 10:46S 18°19' W 160°37'0 0.0 26.9
2014-Oct-22 10:01S 18°19' W 160°37'1 1.1
2014-Oct-22 09:11S 18°20' W 160°37'0 0.0 26.9
2014-Oct-22 08:26S 18°20' W 160°37'0 0.1 26.9
2014-Oct-22 07:35S 18°20' W 160°37'1 0.9 26.9
2014-Oct-22 06:41S 18°20' W 160°36'0 0.0 26.9
2014-Oct-22 04:56S 18°20' W 160°36'1 1.9 27.0
2014-Oct-22 04:29S 18°20' W 160°37'1 1.6 27.1
2014-Oct-22 03:37S 18°21' W 160°36'0 0.9 27.1
2014-Oct-22 03:15S 18°21' W 160°36'221.7 27.1
2014-Oct-22 03:09S 18°22' W 160°34'0 0.0 27.1
2014-Oct-22 02:52S 18°22' W 160°34'0 0.0 27.2
2014-Oct-22 01:34S 18°22' W 160°34'0 0.0 27.2
2014-Oct-22 01:16S 18°22' W 160°34'0 1.7 27.2
2014-Oct-22 01:14S 18°22' W 160°34'1 0.8 27.2
2014-Oct-21 23:30S 18°23' W 160°33'2 0.8 27.1
2014-Oct-21 20:43S 18°25' W 160°32'1 1.0 26.9
2014-Oct-21 19:58S 18°26' W 160°33'1 1.2 26.8
2014-Oct-21 19:07S 18°26' W 160°32'0 4.3 26.7
2014-Oct-21 19:04S 18°26' W 160°32'   26.7

Dump ship's entire track history